sensor_id;sensor_type;location;lat;lon;timestamp;temperature;humidity
9808;DHT22;4943;52.550;13.462;2022-12-29T00:01:16;9.80;99.90
9808;DHT22;4943;52.550;13.462;2022-12-29T00:03:47;9.80;99.90
9808;DHT22;4943;52.550;13.462;2022-12-29T00:06:15;9.80;99.90
9808;DHT22;4943;52.550;13.462;2022-12-29T00:08:43;9.90;99.90
9808;DHT22;4943;52.550;13.462;2022-12-29T00:11:13;9.90;99.90
9808;DHT22;4943;52.550;13.462;2022-12-29T00:13:42;10.00;99.90
9808;DHT22;4943;52.550;13.462;2022-12-29T00:16:29;10.00;99.90
9808;DHT22;4943;52.550;13.462;2022-12-29T00:18:59;10.00;99.90
9808;DHT22;4943;52.550;13.462;2022-12-29T00:21:28;10.00;99.90
9808;DHT22;4943;52.550;13.462;2022-12-29T00:24:16;10.00;99.90
9808;DHT22;4943;52.550;13.462;2022-12-29T00:27:12;10.00;99.90
9808;DHT22;4943;52.550;13.462;2022-12-29T00:29:59;10.10;99.90
9808;DHT22;4943;52.550;13.462;2022-12-29T00:32:44;10.10;99.90
9808;DHT22;4943;52.550;13.462;2022-12-29T00:35:34;10.10;99.90
9808;DHT22;4943;52.550;13.462;2022-12-29T00:38:07;10.10;99.90
9808;DHT22;4943;52.550;13.462;2022-12-29T00:40:54;10.10;99.90
9808;DHT22;4943;52.550;13.462;2022-12-29T00:43:40;10.10;99.90
9808;DHT22;4943;52.550;13.462;2022-12-29T00:46:35;10.10;99.90
9808;DHT22;4943;52.550;13.462;2022-12-29T00:49:05;10.10;99.90
9808;DHT22;4943;52.550;13.462;2022-12-29T00:51:52;10.10;99.90
9808;DHT22;4943;52.550;13.462;2022-12-29T00:54:21;10.10;99.90
9808;DHT22;4943;52.550;13.462;2022-12-29T00:56:51;10.00;99.90
9808;DHT22;4943;52.550;13.462;2022-12-29T00:59:20;10.10;99.90
9808;DHT22;4943;52.550;13.462;2022-12-29T01:01:48;10.10;99.90
9808;DHT22;4943;52.550;13.462;2022-12-29T01:04:17;10.10;99.90
9808;DHT22;4943;52.550;13.462;2022-12-29T01:06:45;10.10;99.90
9808;DHT22;4943;52.550;13.462;2022-12-29T01:09:16;10.10;99.90
9808;DHT22;4943;52.550;13.462;2022-12-29T01:12:02;10.10;99.90
9808;DHT22;4943;52.550;13.462;2022-12-29T01:14:31;10.10;99.90
9808;DHT22;4943;52.550;13.462;2022-12-29T01:16:59;10.20;99.90
9808;DHT22;4943;52.550;13.462;2022-12-29T01:19:28;10.20;99.90
9808;DHT22;4943;52.550;13.462;2022-12-29T01:21:56;10.10;99.90
9808;DHT22;4943;52.550;13.462;2022-12-29T01:24:26;10.10;99.90
9808;DHT22;4943;52.550;13.462;2022-12-29T01:26:54;10.20;99.90
9808;DHT22;4943;52.550;13.462;2022-12-29T01:29:23;10.10;99.90
9808;DHT22;4943;52.550;13.462;2022-12-29T01:31:51;10.20;99.90
9808;DHT22;4943;52.550;13.462;2022-12-29T01:34:19;10.20;99.90
9808;DHT22;4943;52.550;13.462;2022-12-29T01:36:48;10.20;99.90
9808;DHT22;4943;52.550;13.462;2022-12-29T01:39:16;10.30;99.90
9808;DHT22;4943;52.550;13.462;2022-12-29T01:41:46;10.30;99.90
9808;DHT22;4943;52.550;13.462;2022-12-29T01:44:49;10.30;99.90
9808;DHT22;4943;52.550;13.462;2022-12-29T01:47:31;10.30;99.90
9808;DHT22;4943;52.550;13.462;2022-12-29T01:50:05;10.30;99.90
9808;DHT22;4943;52.550;13.462;2022-12-29T01:52:36;10.30;99.90
9808;DHT22;4943;52.550;13.462;2022-12-29T01:55:07;10.30;99.90
9808;DHT22;4943;52.550;13.462;2022-12-29T01:57:41;10.30;99.90
9808;DHT22;4943;52.550;13.462;2022-12-29T02:00:13;10.30;99.90
9808;DHT22;4943;52.550;13.462;2022-12-29T02:02:45;10.30;99.90
9808;DHT22;4943;52.550;13.462;2022-12-29T02:05:20;10.30;99.90
9808;DHT22;4943;52.550;13.462;2022-12-29T02:07:51;10.30;99.90
9808;DHT22;4943;52.550;13.462;2022-12-29T02:10:20;10.30;99.90
9808;DHT22;4943;52.550;13.462;2022-12-29T02:12:51;10.30;99.90
9808;DHT22;4943;52.550;13.462;2022-12-29T02:15:21;10.30;99.90
9808;DHT22;4943;52.550;13.462;2022-12-29T02:18:03;10.20;99.90
9808;DHT22;4943;52.550;13.462;2022-12-29T02:20:48;10.30;99.90
9808;DHT22;4943;52.550;13.462;2022-12-29T02:23:32;10.20;99.90
9808;DHT22;4943;52.550;13.462;2022-12-29T02:26:14;10.30;99.90
9808;DHT22;4943;52.550;13.462;2022-12-29T02:29:07;10.30;99.90
9808;DHT22;4943;52.550;13.462;2022-12-29T02:31:43;10.20;99.90
9808;DHT22;4943;52.550;13.462;2022-12-29T02:34:21;10.30;99.90
9808;DHT22;4943;52.550;13.462;2022-12-29T02:36:59;10.20;99.90
9808;DHT22;4943;52.550;13.462;2022-12-29T02:39:35;10.20;99.90
9808;DHT22;4943;52.550;13.462;2022-12-29T02:42:10;10.30;99.90
9808;DHT22;4943;52.550;13.462;2022-12-29T02:44:47;10.20;99.90
9808;DHT22;4943;52.550;13.462;2022-12-29T02:47:23;10.30;99.90
9808;DHT22;4943;52.550;13.462;2022-12-29T02:49:57;10.30;99.90
9808;DHT22;4943;52.550;13.462;2022-12-29T02:52:31;10.30;99.90
9808;DHT22;4943;52.550;13.462;2022-12-29T02:55:00;10.20;99.90
9808;DHT22;4943;52.550;13.462;2022-12-29T02:57:30;10.20;99.90
9808;DHT22;4943;52.550;13.462;2022-12-29T03:00:03;10.30;99.90
9808;DHT22;4943;52.550;13.462;2022-12-29T03:02:59;10.30;99.90
9808;DHT22;4943;52.550;13.462;2022-12-29T03:05:56;10.40;99.90
9808;DHT22;4943;52.550;13.462;2022-12-29T03:08:31;10.50;99.90
9808;DHT22;4943;52.550;13.462;2022-12-29T03:11:03;10.50;99.90
9808;DHT22;4943;52.550;13.462;2022-12-29T03:13:36;10.50;99.90
9808;DHT22;4943;52.550;13.462;2022-12-29T03:16:34;10.50;99.90
9808;DHT22;4943;52.550;13.462;2022-12-29T03:19:07;10.50;99.90
9808;DHT22;4943;52.550;13.462;2022-12-29T03:21:39;10.60;99.90
9808;DHT22;4943;52.550;13.462;2022-12-29T03:24:27;10.60;99.90
9808;DHT22;4943;52.550;13.462;2022-12-29T03:26:59;10.60;99.90
9808;DHT22;4943;52.550;13.462;2022-12-29T03:29:31;10.60;99.90
9808;DHT22;4943;52.550;13.462;2022-12-29T03:32:01;10.70;99.90
9808;DHT22;4943;52.550;13.462;2022-12-29T03:34:31;10.70;99.90
9808;DHT22;4943;52.550;13.462;2022-12-29T03:37:06;10.80;99.90
9808;DHT22;4943;52.550;13.462;2022-12-29T03:39:36;10.80;99.90
9808;DHT22;4943;52.550;13.462;2022-12-29T03:42:08;10.80;99.90
9808;DHT22;4943;52.550;13.462;2022-12-29T03:44:38;10.80;99.90
9808;DHT22;4943;52.550;13.462;2022-12-29T03:47:09;10.80;99.90
9808;DHT22;4943;52.550;13.462;2022-12-29T03:49:39;10.90;99.90
9808;DHT22;4943;52.550;13.462;2022-12-29T03:52:08;10.90;99.90
9808;DHT22;4943;52.550;13.462;2022-12-29T03:54:36;10.90;99.90
9808;DHT22;4943;52.550;13.462;2022-12-29T03:57:04;10.90;99.90
9808;DHT22;4943;52.550;13.462;2022-12-29T03:59:33;10.90;99.90
9808;DHT22;4943;52.550;13.462;2022-12-29T04:02:01;10.90;99.90
9808;DHT22;4943;52.550;13.462;2022-12-29T04:04:29;10.90;99.90
9808;DHT22;4943;52.550;13.462;2022-12-29T04:06:59;10.90;99.90
9808;DHT22;4943;52.550;13.462;2022-12-29T04:09:28;11.00;99.90
9808;DHT22;4943;52.550;13.462;2022-12-29T04:11:56;11.00;99.90
9808;DHT22;4943;52.550;13.462;2022-12-29T04:14:25;11.00;99.90
9808;DHT22;4943;52.550;13.462;2022-12-29T04:16:53;11.00;99.90
9808;DHT22;4943;52.550;13.462;2022-12-29T04:19:21;11.00;99.90
9808;DHT22;4943;52.550;13.462;2022-12-29T04:21:50;11.10;99.90
9808;DHT22;4943;52.550;13.462;2022-12-29T04:24:19;11.10;99.90
9808;DHT22;4943;52.550;13.462;2022-12-29T04:26:48;11.10;99.90
9808;DHT22;4943;52.550;13.462;2022-12-29T04:29:16;11.10;99.90
9808;DHT22;4943;52.550;13.462;2022-12-29T04:31:44;11.10;99.90
9808;DHT22;4943;52.550;13.462;2022-12-29T04:34:13;11.10;99.90
9808;DHT22;4943;52.550;13.462;2022-12-29T04:36:41;11.20;99.90
9808;DHT22;4943;52.550;13.462;2022-12-29T04:39:09;11.20;99.90
9808;DHT22;4943;52.550;13.462;2022-12-29T04:41:39;11.10;99.90
9808;DHT22;4943;52.550;13.462;2022-12-29T04:44:07;11.10;99.90
9808;DHT22;4943;52.550;13.462;2022-12-29T04:46:36;11.10;99.90
9808;DHT22;4943;52.550;13.462;2022-12-29T04:49:04;11.10;99.90
9808;DHT22;4943;52.550;13.462;2022-12-29T04:51:35;11.10;99.90
9808;DHT22;4943;52.550;13.462;2022-12-29T04:54:04;11.10;99.90
9808;DHT22;4943;52.550;13.462;2022-12-29T04:56:32;11.10;99.90
9808;DHT22;4943;52.550;13.462;2022-12-29T04:59:02;11.10;99.90
9808;DHT22;4943;52.550;13.462;2022-12-29T05:01:30;11.10;99.90
9808;DHT22;4943;52.550;13.462;2022-12-29T05:03:58;11.10;99.90
9808;DHT22;4943;52.550;13.462;2022-12-29T05:06:27;11.00;99.90
9808;DHT22;4943;52.550;13.462;2022-12-29T05:08:55;11.00;99.90
9808;DHT22;4943;52.550;13.462;2022-12-29T05:11:23;11.00;99.90
9808;DHT22;4943;52.550;13.462;2022-12-29T05:13:51;11.10;99.90
9808;DHT22;4943;52.550;13.462;2022-12-29T05:16:21;11.10;99.90
9808;DHT22;4943;52.550;13.462;2022-12-29T05:18:49;11.10;99.90
9808;DHT22;4943;52.550;13.462;2022-12-29T05:21:18;11.10;99.90
9808;DHT22;4943;52.550;13.462;2022-12-29T05:23:46;11.10;99.90
9808;DHT22;4943;52.550;13.462;2022-12-29T05:26:14;11.10;99.90
9808;DHT22;4943;52.550;13.462;2022-12-29T05:28:42;11.10;99.90
9808;DHT22;4943;52.550;13.462;2022-12-29T05:31:11;11.20;99.90
9808;DHT22;4943;52.550;13.462;2022-12-29T05:33:41;11.20;99.90
9808;DHT22;4943;52.550;13.462;2022-12-29T05:36:10;11.20;99.90
9808;DHT22;4943;52.550;13.462;2022-12-29T05:38:38;11.20;99.90
9808;DHT22;4943;52.550;13.462;2022-12-29T05:41:07;11.20;99.90
9808;DHT22;4943;52.550;13.462;2022-12-29T05:43:35;11.20;99.90
9808;DHT22;4943;52.550;13.462;2022-12-29T05:46:04;11.20;99.90
9808;DHT22;4943;52.550;13.462;2022-12-29T05:48:32;11.30;99.90
9808;DHT22;4943;52.550;13.462;2022-12-29T05:51:05;11.30;99.90
9808;DHT22;4943;52.550;13.462;2022-12-29T05:53:34;11.30;99.90
9808;DHT22;4943;52.550;13.462;2022-12-29T05:56:02;11.30;99.90
9808;DHT22;4943;52.550;13.462;2022-12-29T05:58:30;11.40;99.90
9808;DHT22;4943;52.550;13.462;2022-12-29T06:00:59;11.40;99.90
9808;DHT22;4943;52.550;13.462;2022-12-29T06:03:27;11.40;99.90
9808;DHT22;4943;52.550;13.462;2022-12-29T06:05:55;11.40;99.90
9808;DHT22;4943;52.550;13.462;2022-12-29T06:08:25;11.50;99.90
9808;DHT22;4943;52.550;13.462;2022-12-29T06:10:53;11.50;99.90
9808;DHT22;4943;52.550;13.462;2022-12-29T06:13:22;11.50;99.90
9808;DHT22;4943;52.550;13.462;2022-12-29T06:15:50;11.60;99.90
9808;DHT22;4943;52.550;13.462;2022-12-29T06:18:19;11.60;99.90
9808;DHT22;4943;52.550;13.462;2022-12-29T06:20:47;11.60;99.90
9808;DHT22;4943;52.550;13.462;2022-12-29T06:23:15;11.60;99.90
9808;DHT22;4943;52.550;13.462;2022-12-29T06:25:47;11.60;99.90
9808;DHT22;4943;52.550;13.462;2022-12-29T06:28:16;11.60;99.90
9808;DHT22;4943;52.550;13.462;2022-12-29T06:30:44;11.70;99.90
9808;DHT22;4943;52.550;13.462;2022-12-29T06:33:13;11.60;99.90
9808;DHT22;4943;52.550;13.462;2022-12-29T06:35:43;11.70;99.90
9808;DHT22;4943;52.550;13.462;2022-12-29T06:38:12;11.70;99.90
9808;DHT22;4943;52.550;13.462;2022-12-29T06:40:42;11.70;99.90
9808;DHT22;4943;52.550;13.462;2022-12-29T06:43:13;11.70;99.90
9808;DHT22;4943;52.550;13.462;2022-12-29T06:45:41;11.80;99.90
9808;DHT22;4943;52.550;13.462;2022-12-29T06:48:10;11.80;99.90
9808;DHT22;4943;52.550;13.462;2022-12-29T06:50:38;11.80;99.90
9808;DHT22;4943;52.550;13.462;2022-12-29T06:53:06;11.80;99.90
9808;DHT22;4943;52.550;13.462;2022-12-29T06:55:35;11.80;99.90
9808;DHT22;4943;52.550;13.462;2022-12-29T06:58:03;11.80;99.90
9808;DHT22;4943;52.550;13.462;2022-12-29T07:00:33;11.80;99.90
9808;DHT22;4943;52.550;13.462;2022-12-29T07:03:01;11.80;99.90
9808;DHT22;4943;52.550;13.462;2022-12-29T07:05:30;11.80;99.90
9808;DHT22;4943;52.550;13.462;2022-12-29T07:07:59;11.80;99.90
9808;DHT22;4943;52.550;13.462;2022-12-29T07:10:28;11.80;99.90
9808;DHT22;4943;52.550;13.462;2022-12-29T07:12:56;11.80;99.90
9808;DHT22;4943;52.550;13.462;2022-12-29T07:15:24;11.80;99.90
9808;DHT22;4943;52.550;13.462;2022-12-29T07:17:54;11.80;99.90
9808;DHT22;4943;52.550;13.462;2022-12-29T07:20:22;11.70;99.90
9808;DHT22;4943;52.550;13.462;2022-12-29T07:22:53;11.70;99.90
9808;DHT22;4943;52.550;13.462;2022-12-29T07:25:21;11.70;99.90
9808;DHT22;4943;52.550;13.462;2022-12-29T07:27:50;11.70;99.90
9808;DHT22;4943;52.550;13.462;2022-12-29T07:30:18;11.70;99.90
9808;DHT22;4943;52.550;13.462;2022-12-29T07:32:46;11.70;99.90
9808;DHT22;4943;52.550;13.462;2022-12-29T07:35:16;11.80;99.90
9808;DHT22;4943;52.550;13.462;2022-12-29T07:37:44;11.80;99.90
9808;DHT22;4943;52.550;13.462;2022-12-29T07:40:13;11.80;99.90
9808;DHT22;4943;52.550;13.462;2022-12-29T07:42:41;11.80;99.90
9808;DHT22;4943;52.550;13.462;2022-12-29T07:45:10;11.80;99.90
9808;DHT22;4943;52.550;13.462;2022-12-29T07:47:38;11.80;99.90
9808;DHT22;4943;52.550;13.462;2022-12-29T07:50:07;11.80;99.90
9808;DHT22;4943;52.550;13.462;2022-12-29T07:52:37;11.80;99.90
9808;DHT22;4943;52.550;13.462;2022-12-29T07:55:06;11.70;99.90
9808;DHT22;4943;52.550;13.462;2022-12-29T07:57:34;11.80;99.90
9808;DHT22;4943;52.550;13.462;2022-12-29T08:00:03;11.80;99.90
9808;DHT22;4943;52.550;13.462;2022-12-29T08:02:31;11.90;99.90
9808;DHT22;4943;52.550;13.462;2022-12-29T08:05:00;11.90;99.90
9808;DHT22;4943;52.550;13.462;2022-12-29T08:07:28;12.00;99.90
9808;DHT22;4943;52.550;13.462;2022-12-29T08:09:58;12.00;99.90
9808;DHT22;4943;52.550;13.462;2022-12-29T08:12:26;12.00;99.90
9808;DHT22;4943;52.550;13.462;2022-12-29T08:14:54;12.10;99.90
9808;DHT22;4943;52.550;13.462;2022-12-29T08:17:23;12.00;99.90
9808;DHT22;4943;52.550;13.462;2022-12-29T08:19:51;12.00;99.90
9808;DHT22;4943;52.550;13.462;2022-12-29T08:22:19;12.10;99.90
9808;DHT22;4943;52.550;13.462;2022-12-29T08:24:47;12.10;99.90
9808;DHT22;4943;52.550;13.462;2022-12-29T08:27:18;12.10;99.90
9808;DHT22;4943;52.550;13.462;2022-12-29T08:29:47;12.20;99.90
9808;DHT22;4943;52.550;13.462;2022-12-29T08:32:15;12.20;99.90
9808;DHT22;4943;52.550;13.462;2022-12-29T08:34:44;12.30;99.90
9808;DHT22;4943;52.550;13.462;2022-12-29T08:37:12;12.30;99.90
9808;DHT22;4943;52.550;13.462;2022-12-29T08:39:40;12.30;99.90
9808;DHT22;4943;52.550;13.462;2022-12-29T08:42:08;12.20;99.90
9808;DHT22;4943;52.550;13.462;2022-12-29T08:44:38;12.20;99.90
9808;DHT22;4943;52.550;13.462;2022-12-29T08:47:06;12.20;99.90
9808;DHT22;4943;52.550;13.462;2022-12-29T08:49:35;12.20;99.90
9808;DHT22;4943;52.550;13.462;2022-12-29T08:52:04;12.20;99.90
9808;DHT22;4943;52.550;13.462;2022-12-29T08:54:32;12.20;99.90
9808;DHT22;4943;52.550;13.462;2022-12-29T08:57:00;12.20;99.90
9808;DHT22;4943;52.550;13.462;2022-12-29T08:59:29;12.30;99.90
9808;DHT22;4943;52.550;13.462;2022-12-29T09:01:58;12.40;99.90
9808;DHT22;4943;52.550;13.462;2022-12-29T09:04:28;12.40;99.90
9808;DHT22;4943;52.550;13.462;2022-12-29T09:06:57;12.40;99.90
9808;DHT22;4943;52.550;13.462;2022-12-29T09:09:25;12.50;99.90
9808;DHT22;4943;52.550;13.462;2022-12-29T09:11:54;12.50;99.90
9808;DHT22;4943;52.550;13.462;2022-12-29T09:14:22;12.60;99.90
9808;DHT22;4943;52.550;13.462;2022-12-29T09:16:51;12.60;99.90
9808;DHT22;4943;52.550;13.462;2022-12-29T09:19:38;12.60;99.90
9808;DHT22;4943;52.550;13.462;2022-12-29T09:22:06;12.60;99.90
9808;DHT22;4943;52.550;13.462;2022-12-29T09:24:34;12.60;99.90
9808;DHT22;4943;52.550;13.462;2022-12-29T09:27:03;12.50;99.90
9808;DHT22;4943;52.550;13.462;2022-12-29T09:29:31;12.60;99.90
9808;DHT22;4943;52.550;13.462;2022-12-29T09:31:59;12.60;99.90
9808;DHT22;4943;52.550;13.462;2022-12-29T09:34:31;12.60;99.90
9808;DHT22;4943;52.550;13.462;2022-12-29T09:37:01;12.60;99.90
9808;DHT22;4943;52.550;13.462;2022-12-29T09:39:29;12.70;99.90
9808;DHT22;4943;52.550;13.462;2022-12-29T09:42:01;12.70;99.90
9808;DHT22;4943;52.550;13.462;2022-12-29T09:44:48;12.80;99.90
9808;DHT22;4943;52.550;13.462;2022-12-29T09:47:19;12.80;99.90
9808;DHT22;4943;52.550;13.462;2022-12-29T09:49:53;12.80;99.90
9808;DHT22;4943;52.550;13.462;2022-12-29T09:52:26;12.80;99.90
9808;DHT22;4943;52.550;13.462;2022-12-29T09:54:59;12.90;99.90
9808;DHT22;4943;52.550;13.462;2022-12-29T09:57:42;13.00;99.90
9808;DHT22;4943;52.550;13.462;2022-12-29T10:00:15;13.00;99.90
9808;DHT22;4943;52.550;13.462;2022-12-29T10:02:48;13.10;99.90
9808;DHT22;4943;52.550;13.462;2022-12-29T10:05:26;13.10;99.90
9808;DHT22;4943;52.550;13.462;2022-12-29T10:08:10;13.10;99.90
9808;DHT22;4943;52.550;13.462;2022-12-29T10:10:48;13.20;99.90
9808;DHT22;4943;52.550;13.462;2022-12-29T10:13:26;13.20;99.90
9808;DHT22;4943;52.550;13.462;2022-12-29T10:16:04;13.20;99.90
9808;DHT22;4943;52.550;13.462;2022-12-29T10:18:57;13.20;99.90
9808;DHT22;4943;52.550;13.462;2022-12-29T10:21:40;13.20;99.90
9808;DHT22;4943;52.550;13.462;2022-12-29T10:24:17;13.20;99.90
9808;DHT22;4943;52.550;13.462;2022-12-29T10:26:48;13.20;99.90
9808;DHT22;4943;52.550;13.462;2022-12-29T10:29:19;13.20;99.90
9808;DHT22;4943;52.550;13.462;2022-12-29T10:31:50;13.20;99.90
9808;DHT22;4943;52.550;13.462;2022-12-29T10:34:26;13.30;99.90
9808;DHT22;4943;52.550;13.462;2022-12-29T10:37:00;13.40;99.90
9808;DHT22;4943;52.550;13.462;2022-12-29T10:39:37;13.50;99.90
9808;DHT22;4943;52.550;13.462;2022-12-29T10:42:11;13.60;99.90
9808;DHT22;4943;52.550;13.462;2022-12-29T10:44:42;13.70;99.90
9808;DHT22;4943;52.550;13.462;2022-12-29T10:47:15;13.80;99.90
9808;DHT22;4943;52.550;13.462;2022-12-29T10:49:47;13.90;99.90
9808;DHT22;4943;52.550;13.462;2022-12-29T10:52:17;14.00;99.90
9808;DHT22;4943;52.550;13.462;2022-12-29T10:54:52;14.10;99.90
9808;DHT22;4943;52.550;13.462;2022-12-29T10:57:26;14.10;99.90
9808;DHT22;4943;52.550;13.462;2022-12-29T10:59:55;14.10;99.90
9808;DHT22;4943;52.550;13.462;2022-12-29T11:02:46;14.10;99.90
9808;DHT22;4943;52.550;13.462;2022-12-29T11:05:23;14.20;99.90
9808;DHT22;4943;52.550;13.462;2022-12-29T11:07:58;14.10;99.90
9808;DHT22;4943;52.550;13.462;2022-12-29T11:10:35;14.20;99.90
9808;DHT22;4943;52.550;13.462;2022-12-29T11:13:12;14.20;99.90
9808;DHT22;4943;52.550;13.462;2022-12-29T11:15:43;14.20;99.90
9808;DHT22;4943;52.550;13.462;2022-12-29T11:18:20;14.30;99.90
9808;DHT22;4943;52.550;13.462;2022-12-29T11:20:49;14.30;99.90
9808;DHT22;4943;52.550;13.462;2022-12-29T11:23:24;14.20;99.90
9808;DHT22;4943;52.550;13.462;2022-12-29T11:26:14;14.20;99.90
9808;DHT22;4943;52.550;13.462;2022-12-29T11:28:45;14.30;99.90
9808;DHT22;4943;52.550;13.462;2022-12-29T11:31:17;14.30;99.90
9808;DHT22;4943;52.550;13.462;2022-12-29T11:33:45;14.30;99.90
9808;DHT22;4943;52.550;13.462;2022-12-29T11:36:17;14.30;99.90
9808;DHT22;4943;52.550;13.462;2022-12-29T11:38:49;14.30;99.90
9808;DHT22;4943;52.550;13.462;2022-12-29T11:41:24;14.30;99.90
9808;DHT22;4943;52.550;13.462;2022-12-29T11:43:53;14.30;99.90
9808;DHT22;4943;52.550;13.462;2022-12-29T11:46:26;14.30;99.90
9808;DHT22;4943;52.550;13.462;2022-12-29T11:48:56;14.30;99.90
9808;DHT22;4943;52.550;13.462;2022-12-29T11:51:28;14.30;99.90
9808;DHT22;4943;52.550;13.462;2022-12-29T11:53:58;14.30;99.90
9808;DHT22;4943;52.550;13.462;2022-12-29T11:56:36;14.30;99.90
9808;DHT22;4943;52.550;13.462;2022-12-29T11:59:40;14.30;99.90
9808;DHT22;4943;52.550;13.462;2022-12-29T12:02:28;14.30;99.90
9808;DHT22;4943;52.550;13.462;2022-12-29T12:05:16;14.20;99.90
9808;DHT22;4943;52.550;13.462;2022-12-29T12:07:52;14.20;99.90
9808;DHT22;4943;52.550;13.462;2022-12-29T12:10:26;14.20;99.90
9808;DHT22;4943;52.550;13.462;2022-12-29T12:13:03;14.20;99.90
9808;DHT22;4943;52.550;13.462;2022-12-29T12:15:37;14.10;99.90
9808;DHT22;4943;52.550;13.462;2022-12-29T12:18:17;14.00;99.90
9808;DHT22;4943;52.550;13.462;2022-12-29T12:20:49;13.90;99.90
9808;DHT22;4943;52.550;13.462;2022-12-29T12:23:30;13.80;99.90
9808;DHT22;4943;52.550;13.462;2022-12-29T12:26:09;13.80;99.90
9808;DHT22;4943;52.550;13.462;2022-12-29T12:28:48;13.80;99.90
9808;DHT22;4943;52.550;13.462;2022-12-29T12:31:29;13.70;99.90
9808;DHT22;4943;52.550;13.462;2022-12-29T12:34:04;13.60;99.90
9808;DHT22;4943;52.550;13.462;2022-12-29T12:36:54;13.60;99.90
9808;DHT22;4943;52.550;13.462;2022-12-29T12:39:33;13.60;99.90
9808;DHT22;4943;52.550;13.462;2022-12-29T12:42:18;13.60;99.90
9808;DHT22;4943;52.550;13.462;2022-12-29T12:44:57;13.60;99.90
9808;DHT22;4943;52.550;13.462;2022-12-29T12:47:46;13.60;99.90
9808;DHT22;4943;52.550;13.462;2022-12-29T12:50:38;13.60;99.90
9808;DHT22;4943;52.550;13.462;2022-12-29T12:53:20;13.60;99.90
9808;DHT22;4943;52.550;13.462;2022-12-29T12:56:08;13.70;99.90
9808;DHT22;4943;52.550;13.462;2022-12-29T12:58:43;13.70;99.90
9808;DHT22;4943;52.550;13.462;2022-12-29T13:01:35;13.70;99.90
9808;DHT22;4943;52.550;13.462;2022-12-29T13:04:25;13.60;99.90
9808;DHT22;4943;52.550;13.462;2022-12-29T13:07:07;13.50;99.90
9808;DHT22;4943;52.550;13.462;2022-12-29T13:09:52;13.50;99.90
9808;DHT22;4943;52.550;13.462;2022-12-29T13:12:34;13.40;99.90
9808;DHT22;4943;52.550;13.462;2022-12-29T13:15:13;13.40;99.90
9808;DHT22;4943;52.550;13.462;2022-12-29T13:17:53;13.30;99.90
9808;DHT22;4943;52.550;13.462;2022-12-29T13:20:30;13.30;99.90
9808;DHT22;4943;52.550;13.462;2022-12-29T13:23:05;13.30;99.90
9808;DHT22;4943;52.550;13.462;2022-12-29T13:25:39;13.20;99.90
9808;DHT22;4943;52.550;13.462;2022-12-29T13:28:18;13.20;99.90
9808;DHT22;4943;52.550;13.462;2022-12-29T13:30:56;13.10;99.90
9808;DHT22;4943;52.550;13.462;2022-12-29T13:33:33;13.10;99.90
9808;DHT22;4943;52.550;13.462;2022-12-29T13:36:10;13.10;99.90
9808;DHT22;4943;52.550;13.462;2022-12-29T13:38:43;13.00;99.90
9808;DHT22;4943;52.550;13.462;2022-12-29T13:41:18;13.00;99.90
9808;DHT22;4943;52.550;13.462;2022-12-29T13:43:49;13.00;99.90
9808;DHT22;4943;52.550;13.462;2022-12-29T13:46:23;13.00;99.90
9808;DHT22;4943;52.550;13.462;2022-12-29T13:48:58;12.90;99.90
9808;DHT22;4943;52.550;13.462;2022-12-29T13:51:30;12.90;99.90
9808;DHT22;4943;52.550;13.462;2022-12-29T13:54:07;12.90;99.90
9808;DHT22;4943;52.550;13.462;2022-12-29T13:56:42;12.90;99.90
9808;DHT22;4943;52.550;13.462;2022-12-29T13:59:19;12.90;99.90
9808;DHT22;4943;52.550;13.462;2022-12-29T14:01:54;12.90;99.90
9808;DHT22;4943;52.550;13.462;2022-12-29T14:04:28;12.90;99.90
9808;DHT22;4943;52.550;13.462;2022-12-29T14:07:02;12.90;99.90
9808;DHT22;4943;52.550;13.462;2022-12-29T14:09:42;12.90;99.90
9808;DHT22;4943;52.550;13.462;2022-12-29T14:12:20;12.90;99.90
9808;DHT22;4943;52.550;13.462;2022-12-29T14:14:50;12.90;99.90
9808;DHT22;4943;52.550;13.462;2022-12-29T14:17:20;12.90;99.90
9808;DHT22;4943;52.550;13.462;2022-12-29T14:19:53;12.90;99.90
9808;DHT22;4943;52.550;13.462;2022-12-29T14:22:27;12.90;99.90
9808;DHT22;4943;52.550;13.462;2022-12-29T14:24:59;12.90;99.90
9808;DHT22;4943;52.550;13.462;2022-12-29T14:27:50;12.90;99.90
9808;DHT22;4943;52.550;13.462;2022-12-29T14:30:46;13.00;99.90
9808;DHT22;4943;52.550;13.462;2022-12-29T14:33:15;12.90;99.90
9808;DHT22;4943;52.550;13.462;2022-12-29T14:35:47;12.90;99.90
9808;DHT22;4943;52.550;13.462;2022-12-29T14:38:22;12.80;99.90
9808;DHT22;4943;52.550;13.462;2022-12-29T14:40:52;12.90;99.90
9808;DHT22;4943;52.550;13.462;2022-12-29T14:43:24;12.80;99.90
9808;DHT22;4943;52.550;13.462;2022-12-29T14:45:59;12.80;99.90
9808;DHT22;4943;52.550;13.462;2022-12-29T14:48:33;12.80;99.90
9808;DHT22;4943;52.550;13.462;2022-12-29T14:51:17;12.80;99.90
9808;DHT22;4943;52.550;13.462;2022-12-29T14:53:48;12.80;99.90
9808;DHT22;4943;52.550;13.462;2022-12-29T14:56:17;12.80;99.90
9808;DHT22;4943;52.550;13.462;2022-12-29T14:58:50;12.80;99.90
9808;DHT22;4943;52.550;13.462;2022-12-29T15:01:34;12.80;99.90
9808;DHT22;4943;52.550;13.462;2022-12-29T15:04:14;12.80;99.90
9808;DHT22;4943;52.550;13.462;2022-12-29T15:06:46;12.80;99.90
9808;DHT22;4943;52.550;13.462;2022-12-29T15:09:24;12.80;99.90
9808;DHT22;4943;52.550;13.462;2022-12-29T15:11:59;12.80;99.90
9808;DHT22;4943;52.550;13.462;2022-12-29T15:14:32;12.90;99.90
9808;DHT22;4943;52.550;13.462;2022-12-29T15:17:08;12.90;99.90
9808;DHT22;4943;52.550;13.462;2022-12-29T15:19:37;12.90;99.90
9808;DHT22;4943;52.550;13.462;2022-12-29T15:22:09;12.90;99.90
9808;DHT22;4943;52.550;13.462;2022-12-29T15:24:41;12.90;99.90
9808;DHT22;4943;52.550;13.462;2022-12-29T15:27:13;13.00;99.90
9808;DHT22;4943;52.550;13.462;2022-12-29T15:29:43;13.00;99.90
9808;DHT22;4943;52.550;13.462;2022-12-29T15:32:19;13.00;99.90
9808;DHT22;4943;52.550;13.462;2022-12-29T15:34:50;13.00;99.90
9808;DHT22;4943;52.550;13.462;2022-12-29T15:37:23;12.90;99.90
9808;DHT22;4943;52.550;13.462;2022-12-29T15:39:53;12.90;99.90
9808;DHT22;4943;52.550;13.462;2022-12-29T15:42:48;12.80;99.90
9808;DHT22;4943;52.550;13.462;2022-12-29T15:45:18;12.70;99.90
9808;DHT22;4943;52.550;13.462;2022-12-29T15:47:48;12.60;99.90
9808;DHT22;4943;52.550;13.462;2022-12-29T15:50:22;12.60;99.90
9808;DHT22;4943;52.550;13.462;2022-12-29T15:52:53;12.50;99.90
9808;DHT22;4943;52.550;13.462;2022-12-29T15:55:27;12.50;99.90
9808;DHT22;4943;52.550;13.462;2022-12-29T15:57:57;12.40;99.90
9808;DHT22;4943;52.550;13.462;2022-12-29T16:00:28;12.40;99.90
9808;DHT22;4943;52.550;13.462;2022-12-29T16:02:59;12.40;99.90
9808;DHT22;4943;52.550;13.462;2022-12-29T16:05:33;12.30;99.90
9808;DHT22;4943;52.550;13.462;2022-12-29T16:08:23;12.30;99.90
9808;DHT22;4943;52.550;13.462;2022-12-29T16:10:52;12.30;99.90
9808;DHT22;4943;52.550;13.462;2022-12-29T16:13:26;12.30;99.90
9808;DHT22;4943;52.550;13.462;2022-12-29T16:16:02;12.20;99.90
9808;DHT22;4943;52.550;13.462;2022-12-29T16:18:34;12.30;99.90
9808;DHT22;4943;52.550;13.462;2022-12-29T16:21:05;12.30;99.90
9808;DHT22;4943;52.550;13.462;2022-12-29T16:23:36;12.30;99.90
9808;DHT22;4943;52.550;13.462;2022-12-29T16:26:16;12.40;99.90